Time;durP1;ratioP1;P1;durP2;ratioP2;P2;SDS_P1;SDS_P2;PMS_P1;PMS_P2;Temp;Humidity;BMP_temperature;BMP_pressure;BME280_temperature;BME280_humidity;BME280_pressure;Samples;Min_cycle;Max_cycle;Signal;HPM_P1;HPM_P2
2023/04/28 00:00:15;;;;;;;8.43;4.90;;;;;;;10.29;80.26;101452.34;5029563;28;20108;-61
2023/04/28 00:02:41;;;;;;;9.60;4.63;;;;;;;10.31;81.01;101445.28;5030012;28;20113;-61
2023/04/28 00:05:06;;;;;;;9.68;4.13;;;;;;;10.21;79.06;101435.88;5029728;28;20033;-63
2023/04/28 00:07:32;;;;;;;7.90;4.28;;;;;;;10.10;79.12;101436.09;5032981;28;20033;-63
2023/04/28 00:09:57;;;;;;;15.95;5.20;;;;;;;10.20;79.61;101424.44;5049081;28;20068;-60
2023/04/28 00:12:23;;;;;;;6.90;4.68;;;;;;;10.21;79.89;101430.59;5049608;28;20032;-63
2023/04/28 00:14:48;;;;;;;10.82;4.65;;;;;;;10.30;78.87;101425.09;5050207;28;20083;-62
2023/04/28 00:17:13;;;;;;;11.07;5.43;;;;;;;10.22;79.29;101421.78;5048884;28;20387;-63
2023/04/28 00:19:39;;;;;;;5.95;4.10;;;;;;;10.15;79.30;101420.19;5037382;28;20388;-60
2023/04/28 00:22:05;;;;;;;6.05;4.15;;;;;;;10.21;78.71;101417.44;5029903;28;20020;-59
2023/04/28 00:24:32;;;;;;;6.40;4.80;;;;;;;10.18;78.48;101415.72;5028357;28;20110;-61
2023/04/28 00:27:10;;;;;;;7.20;4.70;;;;;;;10.18;79.98;101420.13;5048309;28;20051;-62
2023/04/28 00:29:38;;;;;;;8.70;4.70;;;;;;;10.25;78.92;101419.09;5048170;28;20025;-61
2023/04/28 00:32:03;;;;;;;10.18;4.93;;;;;;;10.18;79.64;101410.44;5048777;28;20112;-61
2023/04/28 00:34:32;;;;;;;10.85;4.75;;;;;;;10.15;79.63;101402.63;5049867;28;20579;-61
2023/04/28 00:36:57;;;;;;;7.20;4.25;;;;;;;10.21;78.74;101393.72;5047700;28;20071;-62
2023/04/28 00:39:24;;;;;;;6.80;4.90;;;;;;;10.11;80.67;101386.03;5047350;28;20485;-63
2023/04/28 00:41:50;;;;;;;5.50;4.80;;;;;;;10.09;81.29;101385.19;5049462;28;20025;-63
2023/04/28 00:44:15;;;;;;;6.90;5.13;;;;;;;10.09;81.54;101387.81;5022861;28;20506;-62
2023/04/28 00:46:41;;;;;;;5.43;4.85;;;;;;;10.10;82.65;101379.03;5029479;28;20112;-61
2023/04/28 00:49:06;;;;;;;8.20;4.85;;;;;;;10.09;82.70;101377.28;5028774;28;20033;-61
2023/04/28 00:51:32;;;;;;;10.52;4.95;;;;;;;10.14;81.72;101371.06;5029336;28;20502;-62
2023/04/28 00:53:58;;;;;;;6.00;4.55;;;;;;;10.00;83.16;101372.25;5027866;28;20033;-62
2023/04/28 00:56:23;;;;;;;7.90;4.85;;;;;;;10.05;82.20;101372.16;5026967;28;20045;-63
2023/04/28 00:58:48;;;;;;;8.93;5.32;;;;;;;10.05;82.60;101367.75;5033310;28;20100;-63
2023/04/28 01:01:14;;;;;;;7.47;4.95;;;;;;;10.09;81.53;101356.22;5047845;28;20055;-63
2023/04/28 01:03:40;;;;;;;9.23;5.18;;;;;;;9.96;82.40;101360.91;5048140;28;20116;-61
2023/04/28 01:06:07;;;;;;;7.28;5.00;;;;;;;10.01;83.08;101352.91;5032353;28;20116;-60
2023/04/28 01:08:34;;;;;;;8.00;4.55;;;;;;;10.07;82.93;101346.63;5026808;28;20026;-61
2023/04/28 01:11:01;;;;;;;9.68;5.20;;;;;;;9.99;83.66;101352.94;5034645;28;20103;-60
2023/04/28 01:13:27;;;;;;;9.30;5.25;;;;;;;9.98;84.59;101339.81;5049323;28;20698;-62
2023/04/28 01:15:52;;;;;;;9.43;5.25;;;;;;;9.87;84.39;101334.81;5104363;22;20057;-60
2023/04/28 01:18:18;;;;;;;8.60;5.45;;;;;;;9.96;84.25;101337.22;5045820;28;20036;-59
2023/04/28 01:20:43;;;;;;;8.52;5.63;;;;;;;10.02;83.62;101340.63;5047817;28;20029;-62
2023/04/28 01:23:12;;;;;;;8.27;5.05;;;;;;;10.00;83.94;101332.75;5047447;28;20111;-58
2023/04/28 01:25:38;;;;;;;;;;;;;;;10.03;85.78;101326.56;5048175;28;20040;-60
2023/04/28 01:28:03;;;;;;;7.55;4.93;;;;;;;9.97;85.70;101327.56;5046896;28;19914;-60
2023/04/28 01:30:29;;;;;;;10.23;5.22;;;;;;;9.99;86.71;101320.47;5029000;28;20147;-61
2023/04/28 01:32:54;;;;;;;11.52;6.97;;;;;;;9.89;88.81;101318.97;5026973;28;20021;-64
2023/04/28 01:35:19;;;;;;;11.48;5.60;;;;;;;9.93;87.75;101315.38;5027168;28;20120;-62
2023/04/28 01:37:45;;;;;;;11.05;6.25;;;;;;;9.97;86.54;101310.00;5027702;28;20068;-58
2023/04/28 01:40:11;;;;;;;8.80;5.50;;;;;;;9.97;86.34;101306.50;5026337;28;20026;-61
2023/04/28 01:42:36;;;;;;;10.48;5.53;;;;;;;9.95;87.01;101303.03;5047992;28;20029;-61
2023/04/28 01:45:04;;;;;;;6.85;5.20;;;;;;;9.93;87.35;101310.13;5062948;28;20475;-63
2023/04/28 01:47:29;;;;;;;8.52;5.47;;;;;;;9.83;88.60;101301.56;5047332;28;20025;-58
2023/04/28 01:49:54;;;;;;;7.45;5.60;;;;;;;9.80;88.11;101297.25;5047474;28;20031;-62
2023/04/28 01:52:21;;;;;;;10.63;5.68;;;;;;;9.89;87.36;101280.38;5040572;28;20226;-60
2023/04/28 01:54:47;;;;;;;9.45;5.68;;;;;;;9.91;86.90;101289.09;5027056;28;20036;-62
2023/04/28 01:57:12;;;;;;;9.48;5.60;;;;;;;9.88;86.64;101285.66;5025444;28;20025;-60
2023/04/28 01:59:37;;;;;;;6.57;5.38;;;;;;;9.84;88.92;101288.38;5026978;28;20056;-59
2023/04/28 02:02:03;;;;;;;10.48;5.95;;;;;;;9.88;88.33;101294.44;5027781;28;20438;-60
2023/04/28 02:04:28;;;;;;;12.75;5.78;;;;;;;9.91;88.18;101294.38;5030453;28;20029;-58
2023/04/28 02:06:53;;;;;;;7.75;5.60;;;;;;;9.90;88.36;101278.59;5047834;28;20049;-61
2023/04/28 02:09:19;;;;;;;10.13;5.70;;;;;;;9.77;88.36;101280.66;5046535;28;20025;-59
2023/04/28 02:11:44;;;;;;;7.18;5.68;;;;;;;9.77;88.08;101281.53;5046891;28;20032;-61
2023/04/28 02:14:10;;;;;;;8.30;5.40;;;;;;;9.86;86.45;101264.66;5046971;28;20451;-60
2023/04/28 02:16:35;;;;;;;10.15;5.70;;;;;;;9.83;86.53;101268.22;5041631;28;20422;-61
2023/04/28 02:19:00;;;;;;;10.38;5.60;;;;;;;9.83;86.77;101257.69;5027658;28;20044;-62
2023/04/28 02:21:26;;;;;;;10.50;6.20;;;;;;;9.83;86.51;101255.06;5027052;28;20064;-59
2023/04/28 02:23:52;;;;;;;14.55;5.15;;;;;;;9.81;87.41;101248.97;5041616;28;20059;-62
2023/04/28 02:26:17;;;;;;;7.97;5.82;;;;;;;9.77;87.65;101241.16;5047402;28;20464;-60
2023/04/28 02:28:42;;;;;;;10.13;6.65;;;;;;;9.86;87.05;101239.19;5039490;28;20033;-59
2023/04/28 02:31:09;;;;;;;10.38;6.20;;;;;;;9.80;87.46;101244.59;5027479;28;20025;-59
2023/04/28 02:33:35;;;;;;;9.35;6.15;;;;;;;9.81;87.38;101242.84;5032378;28;20035;-61
2023/04/28 02:36:02;;;;;;;8.85;5.90;;;;;;;9.84;88.75;101243.63;5047413;28;20033;-61
2023/04/28 02:38:27;;;;;;;9.20;5.90;;;;;;;9.89;88.10;101240.00;5045995;28;20033;-60
2023/04/28 02:40:57;;;;;;;8.82;5.55;;;;;;;9.69;89.15;101228.22;5028979;28;20029;-61
2023/04/28 02:43:23;;;;;;;10.48;5.97;;;;;;;9.76;88.89;101224.53;5026839;28;20028;-60
2023/04/28 02:45:48;;;;;;;12.15;6.55;;;;;;;9.82;90.07;101234.88;5034203;28;20119;-61
2023/04/28 02:48:13;;;;;;;8.52;5.88;;;;;;;9.93;88.39;101225.88;5045961;28;20545;-60
2023/04/28 02:50:39;;;;;;;10.23;6.03;;;;;;;9.89;89.43;101226.84;5046562;28;20047;-59
2023/04/28 02:53:04;;;;;;;7.20;4.90;;;;;;;9.93;88.37;101223.25;5045649;28;20024;-61
2023/04/28 02:55:31;;;;;;;8.02;5.60;;;;;;;9.90;88.59;101226.81;5044937;28;20052;-60
2023/04/28 02:57:56;;;;;;;10.77;5.80;;;;;;;9.83;89.71;101226.09;5046301;28;20025;-60
2023/04/28 03:00:21;;;;;;;10.25;5.60;;;;;;;9.90;88.83;101229.44;5042021;28;20103;-61
2023/04/28 03:02:47;;;;;;;10.88;5.93;;;;;;;9.83;90.04;101220.84;5027001;28;20029;-60
2023/04/28 03:05:12;;;;;;;8.82;5.53;;;;;;;9.81;90.88;101221.78;5025940;28;20034;-59
2023/04/28 03:07:37;;;;;;;11.45;5.70;;;;;;;9.83;91.15;101215.59;5038856;28;20044;-60
2023/04/28 03:10:03;;;;;;;10.48;5.40;;;;;;;9.77;90.19;101210.47;5045546;28;20032;-59
2023/04/28 03:12:28;;;;;;;8.73;5.40;;;;;;;9.75;89.71;101214.03;5045395;28;20025;-60
2023/04/28 03:14:53;;;;;;;7.50;5.47;;;;;;;9.71;91.54;101215.88;5046755;28;20490;-57
2023/04/28 03:17:19;;;;;;;11.15;5.95;;;;;;;9.70;90.17;101214.16;5044773;28;20025;-58
2023/04/28 03:19:44;;;;;;;10.98;5.70;;;;;;;9.70;91.06;101208.88;5060020;28;20044;-60
2023/04/28 03:22:10;;;;;;;10.60;6.15;;;;;;;9.70;92.03;101203.63;5046159;28;20049;-60
2023/04/28 03:24:35;;;;;;;8.35;5.25;;;;;;;9.76;90.95;101198.22;5046570;28;20095;-63
2023/04/28 03:27:02;;;;;;;7.82;5.53;;;;;;;9.66;92.67;101202.81;5050811;28;20499;-62
2023/04/28 03:29:27;;;;;;;10.82;5.78;;;;;;;9.70;91.88;101187.84;5050334;28;20170;-60
2023/04/28 03:31:53;;;;;;;8.00;5.40;;;;;;;9.69;91.01;101186.13;5033935;28;20112;-60
2023/04/28 03:34:18;;;;;;;7.45;5.82;;;;;;;9.63;91.03;101192.38;5030423;28;20033;-60
2023/04/28 03:36:43;;;;;;;14.30;5.65;;;;;;;9.68;89.69;101184.38;5035976;28;20040;-61
2023/04/28 03:39:09;;;;;;;11.77;5.78;;;;;;;9.69;89.53;101180.84;5030268;28;20029;-60
2023/04/28 03:41:34;;;;;;;8.82;6.15;;;;;;;9.59;89.52;101185.47;5029962;28;20532;-60
2023/04/28 03:43:59;;;;;;;8.65;5.68;;;;;;;9.64;89.78;101194.13;5046408;28;20048;-60
2023/04/28 03:46:25;;;;;;;11.48;6.20;;;;;;;9.60;90.40;101181.91;5050524;28;20029;-60
2023/04/28 03:48:50;;;;;;;8.13;5.63;;;;;;;9.75;89.45;101164.88;5048988;28;20037;-60
2023/04/28 03:51:16;;;;;;;9.02;5.57;;;;;;;9.59;91.22;101172.31;5049035;28;20135;-61
2023/04/28 03:53:41;;;;;;;11.90;7.68;;;;;;;9.61;90.79;101163.47;5048920;28;20056;-60
2023/04/28 03:56:06;;;;;;;14.05;6.20;;;;;;;9.67;90.37;101156.34;5030796;28;20034;-61
2023/04/28 03:58:32;;;;;;;8.27;6.07;;;;;;;9.67;91.30;101146.69;5049647;28;20115;-61
2023/04/28 04:00:59;;;;;;;11.82;5.80;;;;;;;9.73;91.25;101140.41;5049301;28;20025;-60
2023/04/28 04:03:25;;;;;;;7.85;6.00;;;;;;;9.77;91.04;101141.16;5049197;28;20025;-58
2023/04/28 04:05:51;;;;;;;9.13;5.97;;;;;;;9.58;92.38;101136.38;5049465;28;20033;-61
2023/04/28 04:08:16;;;;;;;10.23;6.00;;;;;;;9.63;92.26;101131.00;5047230;28;20108;-59
2023/04/28 04:10:42;;;;;;;10.15;5.57;;;;;;;9.71;91.90;101121.13;5049455;28;20032;-61
2023/04/28 04:13:07;;;;;;;10.35;6.05;;;;;;;9.60;92.96;101113.50;5056382;28;20456;-61
2023/04/28 04:15:32;;;;;;;10.20;6.57;;;;;;;9.68;92.80;101108.94;5028678;28;20515;-59
2023/04/28 04:17:58;;;;;;;8.02;5.40;;;;;;;9.63;92.59;101117.84;5028256;28;20021;-59
2023/04/28 04:20:23;;;;;;;8.25;5.70;;;;;;;9.68;92.97;101115.94;5029210;28;20163;-58
2023/04/28 04:22:48;;;;;;;10.60;6.28;;;;;;;9.63;92.95;101112.59;5030473;28;20104;-62
2023/04/28 04:25:14;;;;;;;9.85;5.90;;;;;;;9.67;93.13;101108.97;5049031;28;20695;-58
2023/04/28 04:27:39;;;;;;;9.07;5.65;;;;;;;9.63;94.44;101108.19;5048131;28;20025;-62
2023/04/28 04:30:06;;;;;;;14.38;6.82;;;;;;;9.70;94.39;101114.16;5029812;28;20048;-59
2023/04/28 04:32:31;;;;;;;10.52;5.95;;;;;;;9.67;94.33;101119.50;5029266;28;20528;-60
2023/04/28 04:34:56;;;;;;;10.80;6.00;;;;;;;9.63;96.70;101121.34;5046360;28;20116;-58
2023/04/28 04:37:22;;;;;;;10.23;5.95;;;;;;;9.69;97.08;101128.22;5048260;28;20124;-61
2023/04/28 04:39:47;;;;;;;12.30;6.20;;;;;;;9.79;95.93;101132.34;5031626;28;20502;-60
2023/04/28 04:42:12;;;;;;;9.27;6.35;;;;;;;9.76;96.40;101142.06;5027119;28;20396;-62
2023/04/28 04:44:38;;;;;;;10.05;6.53;;;;;;;9.75;96.61;101138.56;5039693;28;20041;-61
2023/04/28 04:47:03;;;;;;;10.45;6.55;;;;;;;9.71;97.49;101134.28;5047329;28;20063;-60
2023/04/28 04:49:28;;;;;;;9.75;6.50;;;;;;;9.56;97.93;101128.53;5037238;28;20063;-61
2023/04/28 04:51:54;;;;;;;8.65;6.32;;;;;;;9.72;97.62;101126.38;5029431;28;20038;-58
2023/04/28 04:54:19;;;;;;;9.90;6.20;;;;;;;9.71;98.99;101129.03;5034374;28;20029;-60
2023/04/28 04:56:44;;;;;;;13.55;6.95;;;;;;;9.73;100.00;101135.13;5048290;28;20099;-59
2023/04/28 04:59:10;;;;;;;13.93;6.80;;;;;;;9.70;100.00;101133.41;5042580;28;20041;-59
2023/04/28 05:01:35;;;;;;;12.75;7.70;;;;;;;9.59;100.00;101133.72;5033929;28;20025;-59
2023/04/28 05:04:00;;;;;;;12.10;7.28;;;;;;;9.67;100.00;101135.28;5046482;28;20029;-60
2023/04/28 05:06:26;;;;;;;11.70;7.20;;;;;;;9.67;100.00;101137.91;5030883;28;20614;-61
2023/04/28 05:08:51;;;;;;;11.52;7.47;;;;;;;9.71;100.00;101136.94;5027778;28;20758;-59
2023/04/28 05:11:16;;;;;;;10.30;7.78;;;;;;;9.65;100.00;101126.56;5028596;28;20013;-60
2023/04/28 05:13:42;;;;;;;10.77;7.57;;;;;;;9.44;100.00;101126.19;5028827;28;20048;-61
2023/04/28 05:16:07;;;;;;;11.93;7.85;;;;;;;9.18;100.00;101127.69;5027694;28;20045;-57
2023/04/28 05:18:32;;;;;;;11.50;8.23;;;;;;;9.25;100.00;101131.91;5027556;28;20037;-60
2023/04/28 05:20:58;;;;;;;12.30;8.15;;;;;;;9.34;100.00;101118.50;5028012;28;20537;-58
2023/04/28 05:23:23;;;;;;;12.10;8.02;;;;;;;9.44;100.00;101121.81;5026477;28;20025;-60
2023/04/28 05:25:49;;;;;;;15.80;8.20;;;;;;;9.42;100.00;101104.34;5026037;28;20034;-58
2023/04/28 05:28:14;;;;;;;12.98;7.47;;;;;;;9.53;100.00;101096.16;5028450;28;20013;-60
2023/04/28 05:30:40;;;;;;;13.30;7.97;;;;;;;9.68;100.00;101102.78;5028695;28;20049;-59
2023/04/28 05:33:05;;;;;;;13.23;8.40;;;;;;;9.82;100.00;101097.19;5027838;28;20028;-60
2023/04/28 05:35:31;;;;;;;11.35;8.05;;;;;;;9.80;100.00;101110.38;5026732;28;20017;-60
2023/04/28 05:37:57;;;;;;;13.30;8.65;;;;;;;9.77;100.00;101094.66;5026540;28;20029;-60
2023/04/28 05:40:22;;;;;;;18.00;9.48;;;;;;;9.67;100.00;101095.81;5026579;28;20108;-59
2023/04/28 05:42:48;;;;;;;11.98;8.10;;;;;;;9.50;100.00;101091.84;5027316;28;20546;-58
2023/04/28 05:45:14;;;;;;;14.45;8.77;;;;;;;9.44;100.00;101090.25;5025770;28;20033;-60
2023/04/28 05:47:39;;;;;;;19.88;8.60;;;;;;;9.40;100.00;101074.56;5025992;28;20048;-59
2023/04/28 05:50:05;;;;;;;13.15;8.80;;;;;;;9.26;100.00;101075.78;5031134;28;20464;-60
2023/04/28 05:52:31;;;;;;;15.23;9.40;;;;;;;9.37;100.00;101077.28;5025564;28;20032;-59
2023/04/28 05:54:56;;;;;;;16.17;9.07;;;;;;;9.45;100.00;101072.72;5025961;28;20013;-59
2023/04/28 05:57:21;;;;;;;14.43;8.68;;;;;;;9.59;100.00;101069.69;5025559;28;20316;-59
2023/04/28 05:59:47;;;;;;;13.93;9.27;;;;;;;9.73;100.00;101066.72;5023322;28;20105;-60
2023/04/28 06:02:12;;;;;;;15.65;9.32;;;;;;;9.82;100.00;101070.88;5024492;28;20022;-61
2023/04/28 06:04:38;;;;;;;15.38;9.48;;;;;;;9.85;100.00;101076.03;5025719;28;20033;-59
2023/04/28 06:07:03;;;;;;;17.42;9.52;;;;;;;9.98;100.00;101081.84;5032116;28;20021;-61
2023/04/28 06:09:28;;;;;;;13.63;9.93;;;;;;;10.16;100.00;101076.94;5023261;28;20037;-60
2023/04/28 06:11:54;;;;;;;15.90;10.05;;;;;;;10.03;100.00;101085.22;5024845;28;20033;-60
2023/04/28 06:14:21;;;;;;;16.58;9.40;;;;;;;10.04;100.00;101086.06;5024767;28;20036;-60
2023/04/28 06:16:46;;;;;;;19.85;10.63;;;;;;;10.06;100.00;101082.47;5022655;28;20029;-60
2023/04/28 06:19:13;;;;;;;14.55;9.23;;;;;;;10.12;100.00;101073.56;5024775;28;20476;-64
2023/04/28 06:21:38;;;;;;;21.40;10.70;;;;;;;10.27;100.00;101071.38;5037369;28;20028;-61
2023/04/28 06:24:04;;;;;;;18.23;11.57;;;;;;;10.31;100.00;101083.56;5044022;28;20028;-61
2023/04/28 06:26:29;;;;;;;18.15;10.38;;;;;;;10.36;100.00;101077.25;5044151;28;20029;-61
2023/04/28 06:28:55;;;;;;;17.63;10.70;;;;;;;10.37;100.00;101078.13;5046314;28;20063;-61
2023/04/28 06:31:20;;;;;;;19.00;10.80;;;;;;;10.51;100.00;101074.25;5031389;28;20037;-61
2023/04/28 06:33:45;;;;;;;12.38;10.13;;;;;;;10.48;100.00;101075.22;5035613;28;20025;-58
2023/04/28 06:36:16;;;;;;;18.73;10.77;;;;;;;10.42;100.00;101070.06;5024619;28;20033;-60
2023/04/28 06:38:42;;;;;;;16.75;10.85;;;;;;;10.40;100.00;101056.06;5023647;28;20060;-59
2023/04/28 06:41:08;;;;;;;16.23;10.60;;;;;;;10.45;100.00;101056.81;5023592;28;20108;-59
2023/04/28 06:43:33;;;;;;;16.65;11.07;;;;;;;10.65;100.00;101052.75;5024611;28;20490;-60
2023/04/28 06:45:59;;;;;;;15.60;10.68;;;;;;;10.61;100.00;101050.22;5023474;28;20030;-60
2023/04/28 06:48:25;;;;;;;19.83;11.13;;;;;;;10.39;100.00;101052.59;5023763;28;20030;-59
2023/04/28 06:50:50;;;;;;;16.42;11.55;;;;;;;10.44;100.00;101042.78;5025007;28;20092;-58
2023/04/28 06:53:15;;;;;;;16.55;10.15;;;;;;;10.71;100.00;101044.63;5043599;28;20021;-62
2023/04/28 06:55:41;;;;;;;21.45;11.23;;;;;;;10.97;100.00;101042.94;5043866;28;20385;-61
2023/04/28 06:58:06;;;;;;;17.33;11.43;;;;;;;11.04;100.00;101043.59;5042951;28;20049;-59
2023/04/28 07:00:32;;;;;;;14.45;11.00;;;;;;;11.33;100.00;101045.28;5044410;28;20025;-58
2023/04/28 07:02:57;;;;;;;18.38;12.15;;;;;;;11.50;100.00;101051.78;5059381;28;20021;-57
2023/04/28 07:05:22;;;;;;;17.30;11.48;;;;;;;11.35;100.00;101061.06;5043928;28;20037;-59
2023/04/28 07:07:48;;;;;;;20.15;12.68;;;;;;;11.56;100.00;101054.19;5031300;28;20022;-61
2023/04/28 07:10:14;;;;;;;20.60;12.93;;;;;;;11.52;100.00;101064.88;5023239;28;20037;-60
2023/04/28 07:12:39;;;;;;;18.02;12.02;;;;;;;11.23;100.00;101065.81;5032770;28;20061;-60
2023/04/28 07:15:06;;;;;;;21.63;13.23;;;;;;;11.16;100.00;101066.94;5044034;28;20692;-59
2023/04/28 07:17:31;;;;;;;18.98;13.25;;;;;;;11.07;100.00;101060.19;5043126;28;20021;-60
2023/04/28 07:19:56;;;;;;;19.58;13.38;;;;;;;11.22;100.00;101066.75;5042652;28;20032;-60
2023/04/28 07:22:22;;;;;;;24.02;13.45;;;;;;;11.31;100.00;101065.56;5042227;28;20021;-59
2023/04/28 07:24:47;;;;;;;20.92;13.23;;;;;;;11.26;100.00;101064.88;5044508;28;20128;-59
2023/04/28 07:27:12;;;;;;;23.30;13.95;;;;;;;11.28;100.00;101070.09;5031457;28;20132;-61
2023/04/28 07:29:38;;;;;;;23.48;13.88;;;;;;;11.28;100.00;101078.00;5024012;28;20025;-59
2023/04/28 07:32:09;;;;;;;23.92;14.57;;;;;;;11.23;100.00;101070.25;5026183;28;20047;-58
2023/04/28 07:34:35;;;;;;;22.58;14.40;;;;;;;11.32;100.00;101074.38;5033218;28;20033;-59
2023/04/28 07:37:01;;;;;;;21.33;14.43;;;;;;;11.22;100.00;101071.16;5023924;28;20100;-62
2023/04/28 07:39:27;;;;;;;23.10;14.82;;;;;;;11.11;100.00;101071.53;5022919;28;20600;-57
2023/04/28 07:41:52;;;;;;;20.50;14.00;;;;;;;11.22;100.00;101066.75;5022657;28;20048;-62
2023/04/28 07:44:18;;;;;;;25.23;15.25;;;;;;;11.40;100.00;101067.03;5024299;28;20032;-59
2023/04/28 07:46:43;;;;;;;29.67;15.57;;;;;;;11.63;100.00;101065.41;5023478;28;20029;-61
2023/04/28 07:49:09;;;;;;;28.02;15.75;;;;;;;11.69;100.00;101059.03;5026207;28;20041;-61
2023/04/28 07:51:34;;;;;;;22.33;15.10;;;;;;;11.78;100.00;101053.44;5024746;28;20009;-59
2023/04/28 07:53:59;;;;;;;22.73;14.75;;;;;;;11.99;100.00;101046.53;5040785;28;20030;-57
2023/04/28 07:56:25;;;;;;;21.85;14.82;;;;;;;12.08;100.00;101048.00;5025747;28;20060;-61
2023/04/28 07:58:51;;;;;;;23.02;15.15;;;;;;;12.23;100.00;101048.34;5035555;28;20037;-63
2023/04/28 08:01:16;;;;;;;26.25;15.25;;;;;;;12.53;100.00;101049.88;5038627;28;20018;-58
2023/04/28 08:03:41;;;;;;;22.13;14.43;;;;;;;12.54;100.00;101051.59;5025666;28;20029;-62
2023/04/28 08:06:07;;;;;;;26.23;14.70;;;;;;;12.56;100.00;101053.25;5025834;28;20069;-57
2023/04/28 08:08:33;;;;;;;20.55;15.07;;;;;;;12.69;100.00;101052.75;5023938;28;20040;-59
2023/04/28 08:10:59;;;;;;;24.05;15.60;;;;;;;12.49;100.00;101049.97;5024946;28;20021;-59
2023/04/28 08:13:24;;;;;;;22.60;15.23;;;;;;;12.46;100.00;101043.97;5027317;28;20128;-59
2023/04/28 08:15:50;;;;;;;24.70;16.15;;;;;;;12.37;100.00;101053.09;5028260;28;20055;-58
2023/04/28 08:18:15;;;;;;;22.77;16.50;;;;;;;12.36;100.00;101054.88;5027409;28;20104;-59
2023/04/28 08:20:41;;;;;;;22.67;15.10;;;;;;;12.52;100.00;101051.63;5025769;28;20072;-63
2023/04/28 08:23:07;;;;;;;26.27;16.27;;;;;;;12.44;100.00;101053.72;5026866;28;20479;-61
2023/04/28 08:25:32;;;;;;;23.27;15.40;;;;;;;12.42;100.00;101059.06;5026272;28;20043;-58
2023/04/28 08:27:58;;;;;;;21.08;16.77;;;;;;;12.44;100.00;101059.00;5028270;28;20017;-60
2023/04/28 08:30:23;;;;;;;22.20;16.35;;;;;;;12.47;100.00;101057.13;5026077;28;20041;-60
2023/04/28 08:32:48;;;;;;;24.95;17.35;;;;;;;12.49;100.00;101059.69;5026879;28;20095;-65
2023/04/28 08:35:14;;;;;;;23.92;17.05;;;;;;;12.74;100.00;101053.47;5025976;28;20033;-60
2023/04/28 08:37:40;;;;;;;20.80;16.23;;;;;;;12.81;100.00;101060.22;5034744;28;20190;-60
2023/04/28 08:40:08;;;;;;;24.75;16.38;;;;;;;12.86;100.00;101046.81;5046160;28;20025;-63
2023/04/28 08:42:34;;;;;;;23.27;16.33;;;;;;;13.03;100.00;101048.75;5027653;28;20090;-60
2023/04/28 08:45:02;;;;;;;25.40;16.17;;;;;;;13.08;100.00;101044.16;5026216;28;20106;-62
2023/04/28 08:47:39;;;;;;;21.67;16.48;;;;;;;13.07;100.00;101045.09;5025946;28;20479;-60
2023/04/28 08:50:06;;;;;;;22.70;15.82;;;;;;;13.10;100.00;101044.09;5025341;28;20427;-59
2023/04/28 08:52:32;;;;;;;22.08;16.17;;;;;;;13.14;100.00;101046.56;5024806;28;20045;-59
2023/04/28 08:54:58;;;;;;;20.52;16.55;;;;;;;13.22;100.00;101048.00;5026333;28;20049;-59
2023/04/28 08:57:26;;;;;;;21.45;15.50;;;;;;;13.40;100.00;101047.22;5022626;28;20028;-60
2023/04/28 08:59:52;;;;;;;22.83;14.95;;;;;;;13.69;100.00;101041.63;5024618;28;20124;-62
2023/04/28 09:02:18;;;;;;;20.20;14.20;;;;;;;13.53;100.00;101030.84;5025013;28;20037;-60
2023/04/28 09:04:44;;;;;;;19.38;14.73;;;;;;;13.84;100.00;101045.41;5019282;28;20022;-60
2023/04/28 09:07:13;;;;;;;18.38;14.32;;;;;;;14.07;100.00;101038.22;5023622;28;20530;-60
2023/04/28 09:09:39;;;;;;;;;;;;;;;14.12;100.00;101038.00;5025805;28;20503;-56
2023/04/28 09:12:05;;;;;;;16.48;13.43;;;;;;;14.33;100.00;101033.47;5023029;28;20002;-57
2023/04/28 09:14:34;;;;;;;19.92;13.57;;;;;;;14.25;100.00;101038.28;5026301;28;20077;-62
2023/04/28 09:16:59;;;;;;;;;;;;;;;14.43;100.00;101035.72;5024870;28;20515;-59
2023/04/28 09:19:33;;;;;;;20.33;13.57;;;;;;;14.37;100.00;101027.13;5026129;28;19917;-61
2023/04/28 09:21:59;;;;;;;16.92;13.57;;;;;;;14.50;100.00;101029.19;5023729;28;20032;-56
2023/04/28 09:24:32;;;;;;;20.15;14.27;;;;;;;14.65;100.00;101031.09;5029748;28;20029;-60
2023/04/28 09:26:58;;;;;;;17.00;13.93;;;;;;;14.69;100.00;101021.19;5025846;28;20041;-58
2023/04/28 09:29:24;;;;;;;15.65;13.57;;;;;;;14.88;100.00;101021.22;5023609;28;20037;-60
2023/04/28 09:31:50;;;;;;;16.33;13.27;;;;;;;15.02;100.00;101024.97;5025302;28;20026;-58
2023/04/28 09:34:15;;;;;;;16.35;12.82;;;;;;;14.94;100.00;101013.88;5024478;28;20116;-58
2023/04/28 09:36:40;;;;;;;16.48;14.10;;;;;;;15.07;100.00;101014.97;5040570;28;20021;-62
2023/04/28 09:39:06;;;;;;;20.35;14.38;;;;;;;15.05;100.00;101016.84;5027186;28;20075;-59
2023/04/28 09:41:49;;;;;;;24.00;15.48;;;;;;;14.84;100.00;101016.97;5036492;28;20116;-60
2023/04/28 09:44:20;;;;;;;17.35;14.43;;;;;;;15.03;100.00;101021.38;5055430;28;20033;-59
2023/04/28 09:46:46;;;;;;;17.42;13.65;;;;;;;15.10;100.00;101020.13;5026382;28;20034;-60
2023/04/28 09:49:12;;;;;;;20.95;14.52;;;;;;;15.14;100.00;101019.03;5023900;28;20365;-58
2023/04/28 09:51:38;;;;;;;19.33;15.25;;;;;;;15.20;100.00;101024.97;5022625;28;20044;-60
2023/04/28 09:54:03;;;;;;;21.38;16.05;;;;;;;15.12;100.00;101023.56;5023505;28;20480;-61
2023/04/28 09:56:30;;;;;;;21.83;16.73;;;;;;;15.09;100.00;101023.72;5027023;28;20021;-57
2023/04/28 09:58:59;;;;;;;23.55;15.63;;;;;;;15.15;100.00;101027.88;5024633;28;20025;-61
2023/04/28 10:01:27;;;;;;;21.08;15.98;;;;;;;15.16;100.00;101027.78;5026353;28;20022;-60
2023/04/28 10:03:53;;;;;;;18.45;14.48;;;;;;;15.30;100.00;101031.53;5023371;28;20040;-59
2023/04/28 10:06:19;;;;;;;17.27;13.32;;;;;;;15.15;100.00;101026.03;5021696;28;20025;-60
2023/04/28 10:08:47;;;;;;;16.20;12.10;;;;;;;15.00;100.00;101032.13;5024859;28;20079;-60
2023/04/28 10:11:15;;;;;;;15.23;10.40;;;;;;;15.14;100.00;101031.47;5022681;28;20242;-59
2023/04/28 10:13:41;;;;;;;12.52;10.15;;;;;;;15.18;100.00;101033.03;5023518;28;20025;-60
2023/04/28 10:16:06;;;;;;;10.20;8.30;;;;;;;15.18;100.00;101033.03;5022731;28;20038;-60
2023/04/28 10:18:34;;;;;;;8.48;7.68;;;;;;;15.05;100.00;101027.44;5026816;28;20036;-60
2023/04/28 10:21:02;;;;;;;9.20;6.93;;;;;;;14.96;100.00;101031.41;5033183;28;20017;-57
2023/04/28 10:23:37;;;;;;;7.75;6.95;;;;;;;14.87;100.00;101032.72;5024557;28;20067;-58
2023/04/28 10:26:02;;;;;;;8.02;6.40;;;;;;;14.81;100.00;101038.34;5046920;28;20450;-59
2023/04/28 10:28:28;;;;;;;6.20;5.40;;;;;;;15.13;100.00;101035.03;5060598;28;20020;-59
2023/04/28 10:31:10;;;;;;;6.15;4.88;;;;;;;15.28;100.00;101039.56;5046017;28;20070;-59
2023/04/28 10:33:36;;;;;;;6.10;5.30;;;;;;;15.25;100.00;101030.91;5042062;28;20024;-59
2023/04/28 10:36:03;;;;;;;7.00;5.22;;;;;;;15.24;100.00;101037.16;5040802;28;20030;-62
2023/04/28 10:38:28;;;;;;;7.03;5.78;;;;;;;15.54;100.00;101044.50;5022731;28;20014;-62
2023/04/28 10:40:54;;;;;;;6.80;5.35;;;;;;;15.61;100.00;101043.22;5024467;28;20019;-60
2023/04/28 10:43:31;;;;;;;6.07;5.47;;;;;;;15.36;100.00;101049.81;5025916;28;21275;-59
2023/04/28 10:46:00;;;;;;;9.20;5.68;;;;;;;15.51;100.00;101044.66;5041649;28;20034;-60
2023/04/28 10:48:25;;;;;;;8.07;5.30;;;;;;;15.53;100.00;101033.00;5025939;28;20139;-62
2023/04/28 10:51:03;;;;;;;7.57;5.55;;;;;;;15.55;100.00;101038.22;5026187;28;21020;-61
2023/04/28 10:53:43;;;;;;;9.70;5.20;;;;;;;15.49;100.00;101043.84;5025545;28;20032;-58
2023/04/28 10:56:25;;;;;;;8.55;5.30;;;;;;;15.36;100.00;101046.28;5025062;28;20033;-59
2023/04/28 10:58:55;;;;;;;8.40;5.38;;;;;;;15.24;100.00;101055.72;5024667;28;20025;-58
2023/04/28 11:01:20;;;;;;;4.88;4.05;;;;;;;15.22;100.00;101047.84;5025859;28;20466;-60
2023/04/28 11:03:46;;;;;;;4.68;4.13;;;;;;;15.16;100.00;101050.81;5025506;28;20048;-60
2023/04/28 11:06:27;;;;;;;5.43;4.43;;;;;;;15.03;100.00;101055.88;5026329;28;20036;-59
2023/04/28 11:08:56;;;;;;;7.05;4.43;;;;;;;14.87;100.00;101056.59;5023787;28;20103;-62
2023/04/28 11:11:24;;;;;;;5.85;4.57;;;;;;;14.85;100.00;101053.19;5025114;28;20018;-60